Time;durP1;ratioP1;P1;durP2;ratioP2;P2;SDS_P1;SDS_P2;PMS_P1;PMS_P2;Temp;Humidity;BMP_temperature;BMP_pressure;BME280_temperature;BME280_humidity;BME280_pressure;Samples;Min_cycle;Max_cycle;Signal;HPM_P1;HPM_P2
2022/05/26 00:00:02;;;;;;;;;;;25.00;43.10;;;;;;1559560;75;1794;-66
2022/05/26 00:02:04;;;;;;;;;;;25.00;43.20;;;;;;1564921;75;671;-67
2022/05/26 00:04:06;;;;;;;;;;;25.00;43.10;;;;;;1562113;75;636;-66
2022/05/26 00:06:08;;;;;;;;;;;25.00;43.10;;;;;;1575582;75;1136;-66
2022/05/26 00:08:11;;;;;;;;;;;25.00;43.10;;;;;;1558225;75;727;-67
2022/05/26 00:10:13;;;;;;;;;;;25.00;43.00;;;;;;1554244;75;669;-66
2022/05/26 00:12:16;;;;;;;;;;;25.00;42.80;;;;;;1561325;75;687;-67
2022/05/26 00:14:18;;;;;;;;;;;25.00;42.80;;;;;;1563627;75;1912;-66
2022/05/26 00:16:20;;;;;;;;;;;25.00;42.90;;;;;;1568948;75;1157;-68
2022/05/26 00:18:22;;;;;;;;;;;25.00;43.00;;;;;;1560979;75;790;-66
2022/05/26 00:20:24;;;;;;;;;;;25.00;43.00;;;;;;1588365;74;765;-65
2022/05/26 00:22:26;;;;;;;;;;;25.00;43.00;;;;;;1572217;74;724;-66
2022/05/26 00:24:28;;;;;;;;;;;25.00;43.10;;;;;;1559683;75;654;-65
2022/05/26 00:26:29;;;;;;;;;;;25.00;43.10;;;;;;1565361;75;1125;-66
2022/05/26 00:28:31;;;;;;;;;;;25.00;43.00;;;;;;1562406;75;680;-66
2022/05/26 00:30:33;;;;;;;;;;;25.00;43.00;;;;;;1561813;75;720;-66
2022/05/26 00:32:35;;;;;;;;;;;25.00;43.00;;;;;;1566981;75;642;-66
2022/05/26 00:34:37;;;;;;;;;;;25.00;42.90;;;;;;1565271;75;1946;-66
2022/05/26 00:36:41;;;;;;;;;;;25.00;43.00;;;;;;1553822;75;1081;-66
2022/05/26 00:38:43;;;;;;;;;;;25.00;43.00;;;;;;1557984;75;2019;-65
2022/05/26 00:40:45;;;;;;;;;;;25.00;42.80;;;;;;1558416;75;849;-65
2022/05/26 00:42:46;;;;;;;;;;;25.00;43.00;;;;;;1558475;75;752;-65
2022/05/26 00:44:50;;;;;;;;;;;25.00;42.80;;;;;;1536696;77;1174;-65
2022/05/26 00:46:56;;;;;;;;;;;25.00;42.70;;;;;;1579054;74;761;-65
2022/05/26 00:48:58;;;;;;;;;;;25.00;42.80;;;;;;1578400;74;543;-65
2022/05/26 00:51:01;;;;;;;;;;;25.00;42.70;;;;;;1563723;74;774;-65
2022/05/26 00:53:04;;;;;;;;;;;25.00;42.70;;;;;;1572441;74;767;-65
2022/05/26 00:55:08;;;;;;;;;;;25.00;42.70;;;;;;1568208;75;1943;-65
2022/05/26 00:57:14;;;;;;;;;;;25.00;42.60;;;;;;1567510;75;578;-65
2022/05/26 00:59:20;;;;;;;;;;;25.00;42.60;;;;;;1543860;76;1910;-65
2022/05/26 01:01:22;;;;;;;;;;;24.90;42.30;;;;;;1520979;76;712;-66
2022/05/26 01:03:29;;;;;;;;;;;24.90;42.10;;;;;;1549851;76;704;-66
2022/05/26 01:05:32;;;;;;;;;;;24.90;42.30;;;;;;1542356;77;2112;-66
2022/05/26 01:07:35;;;;;;;;;;;24.90;42.20;;;;;;1521748;77;732;-66
2022/05/26 01:09:37;;;;;;;;;;;25.00;42.20;;;;;;1552294;76;697;-66
2022/05/26 01:11:39;;;;;;;;;;;25.00;42.10;;;;;;1550336;75;677;-66
2022/05/26 01:13:42;;;;;;;;;;;25.00;42.10;;;;;;1577837;74;1931;-65
2022/05/26 01:15:46;;;;;;;;;;;24.90;42.10;;;;;;1563003;75;1156;-66
2022/05/26 01:18:06;;;;;;;;;;;25.00;42.20;;;;;;1567063;74;804;-65
2022/05/26 01:20:21;;;;;;;;;;;24.90;42.20;;;;;;1567378;75;889;-65
2022/05/26 01:22:40;;;;;;;;;;;25.00;42.30;;;;;;1566063;75;1723;-66
2022/05/26 01:25:00;;;;;;;;;;;24.90;42.10;;;;;;1566544;74;1697;-66
2022/05/26 01:27:06;;;;;;;;;;;25.00;42.20;;;;;;1569110;75;737;-67
2022/05/26 01:29:16;;;;;;;;;;;25.00;42.20;;;;;;1554549;75;751;-66
2022/05/26 01:31:31;;;;;;;;;;;25.00;42.30;;;;;;1572681;75;1975;-67
2022/05/26 01:33:44;;;;;;;;;;;25.00;42.10;;;;;;1563261;74;705;-67
2022/05/26 01:36:04;;;;;;;;;;;24.90;42.00;;;;;;1559536;75;1197;-66
2022/05/26 01:38:08;;;;;;;;;;;25.00;42.00;;;;;;1563470;75;718;-66
2022/05/26 01:40:28;;;;;;;;;;;24.90;41.80;;;;;;1562856;75;1920;-66
2022/05/26 01:42:40;;;;;;;;;;;25.00;41.90;;;;;;1557659;75;704;-66
2022/05/26 01:44:50;;;;;;;;;;;24.90;41.80;;;;;;1578169;74;1875;-66
2022/05/26 01:46:52;;;;;;;;;;;24.90;41.70;;;;;;1553598;74;726;-66
2022/05/26 01:48:57;;;;;;;;;;;25.00;41.70;;;;;;1563311;75;827;-66
2022/05/26 01:51:01;;;;;;;;;;;24.90;41.80;;;;;;1559499;75;661;-67
2022/05/26 01:53:11;;;;;;;;;;;24.90;41.80;;;;;;1563039;75;2103;-66
2022/05/26 01:55:14;;;;;;;;;;;25.00;41.80;;;;;;1555891;75;2082;-67
2022/05/26 01:57:18;;;;;;;;;;;24.90;41.80;;;;;;1558542;75;582;-67
2022/05/26 01:59:23;;;;;;;;;;;24.90;41.80;;;;;;1544998;76;1005;-66
2022/05/26 02:01:25;;;;;;;;;;;24.90;41.80;;;;;;1541680;75;704;-65
2022/05/26 02:03:28;;;;;;;;;;;25.00;41.80;;;;;;1526455;77;712;-65
2022/05/26 02:05:31;;;;;;;;;;;24.90;41.80;;;;;;1538138;76;1206;-65
2022/05/26 02:07:38;;;;;;;;;;;24.90;41.80;;;;;;1521451;76;755;-64
2022/05/26 02:09:41;;;;;;;;;;;25.00;42.00;;;;;;1609399;73;695;-64
2022/05/26 02:11:47;;;;;;;;;;;24.90;41.90;;;;;;1593488;73;765;-65
2022/05/26 02:14:03;;;;;;;;;;;24.90;41.90;;;;;;1603182;73;1933;-64
2022/05/26 02:16:06;;;;;;;;;;;24.90;41.80;;;;;;1601462;73;1195;-65
2022/05/26 02:18:13;;;;;;;;;;;24.90;41.80;;;;;;1593199;73;682;-66
2022/05/26 02:20:15;;;;;;;;;;;24.90;41.90;;;;;;1595904;73;641;-66
2022/05/26 02:22:19;;;;;;;;;;;24.90;41.80;;;;;;1594510;73;700;-66
2022/05/26 02:24:22;;;;;;;;;;;24.90;41.90;;;;;;1607615;73;652;-67
2022/05/26 02:26:24;;;;;;;;;;;24.90;41.90;;;;;;1607031;73;1146;-66
2022/05/26 02:28:26;;;;;;;;;;;24.90;41.80;;;;;;1600799;73;579;-66
2022/05/26 02:30:29;;;;;;;;;;;24.90;41.80;;;;;;1606865;73;644;-67
2022/05/26 02:32:39;;;;;;;;;;;24.90;41.70;;;;;;1592242;73;710;-66
2022/05/26 02:34:38;;;;;;;;;;;24.90;41.60;;;;;;1595168;73;1925;-66
2022/05/26 02:36:40;;;;;;;;;;;24.90;41.50;;;;;;1588582;73;1121;-65
2022/05/26 02:38:42;;;;;;;;;;;24.90;41.50;;;;;;1603251;73;768;-66
2022/05/26 02:40:44;;;;;;;;;;;24.90;41.70;;;;;;1589366;73;653;-66
2022/05/26 02:42:47;;;;;;;;;;;24.90;41.50;;;;;;1607176;73;716;-66
2022/05/26 02:44:49;;;;;;;;;;;25.00;41.50;;;;;;1612116;73;1105;-68
2022/05/26 02:47:09;;;;;;;;;;;24.90;41.40;;;;;;1611858;73;704;-68
2022/05/26 02:49:13;;;;;;;;;;;24.80;41.20;;;;;;1607882;73;1427;-66
2022/05/26 02:51:33;;;;;;;;;;;24.90;41.30;;;;;;1610556;73;758;-66
2022/05/26 02:53:42;;;;;;;;;;;24.80;41.20;;;;;;1609525;73;794;-66
2022/05/26 02:55:45;;;;;;;;;;;24.80;41.20;;;;;;1611561;73;1915;-66
2022/05/26 02:57:52;;;;;;;;;;;24.80;41.40;;;;;;1605472;73;807;-67
2022/05/26 02:59:58;;;;;;;;;;;24.80;41.30;;;;;;1611270;73;829;-66
2022/05/26 03:02:04;;;;;;;;;;;24.90;41.30;;;;;;1613854;73;707;-66
2022/05/26 03:04:11;;;;;;;;;;;24.80;41.40;;;;;;1610264;73;610;-66
2022/05/26 03:06:23;;;;;;;;;;;24.80;41.40;;;;;;1556780;73;1115;-66
2022/05/26 03:08:27;;;;;;;;;;;24.90;41.40;;;;;;1610101;73;1178;-66
2022/05/26 03:10:31;;;;;;;;;;;24.80;41.30;;;;;;1606904;73;812;-66
2022/05/26 03:12:33;;;;;;;;;;;24.80;41.40;;;;;;1613265;73;715;-67
2022/05/26 03:14:35;;;;;;;;;;;24.80;41.40;;;;;;1611598;72;1900;-66
2022/05/26 03:16:37;;;;;;;;;;;24.80;41.40;;;;;;1605699;73;1158;-66
2022/05/26 03:18:39;;;;;;;;;;;24.90;41.50;;;;;;1609501;73;742;-67
2022/05/26 03:20:41;;;;;;;;;;;24.80;41.40;;;;;;1605280;73;730;-67
2022/05/26 03:22:43;;;;;;;;;;;24.80;41.30;;;;;;1610856;73;779;-66
2022/05/26 03:24:45;;;;;;;;;;;24.80;41.30;;;;;;1609889;73;759;-67
2022/05/26 03:26:47;;;;;;;;;;;24.80;41.40;;;;;;1603119;73;1140;-67
2022/05/26 03:28:48;;;;;;;;;;;24.80;41.40;;;;;;1610605;73;702;-67
2022/05/26 03:30:50;;;;;;;;;;;24.80;41.40;;;;;;1611838;73;655;-67
2022/05/26 03:32:52;;;;;;;;;;;24.80;41.40;;;;;;1610214;73;732;-67
2022/05/26 03:41:53;;;;;;;;;;;24.80;41.40;;;;;;1607178;73;717;-67
2022/05/26 03:43:57;;;;;;;;;;;24.80;41.50;;;;;;1613151;73;1583;-67
2022/05/26 03:45:59;;;;;;;;;;;24.80;41.40;;;;;;1587034;72;227603;-67
2022/05/26 03:48:02;;;;;;;;;;;24.80;41.40;;;;;;1525228;76;710;-66
2022/05/26 03:50:04;;;;;;;;;;;24.80;41.30;;;;;;1556859;75;737;-66
2022/05/26 03:52:06;;;;;;;;;;;24.80;41.30;;;;;;1546054;75;758;-68
2022/05/26 03:54:08;;;;;;;;;;;24.70;41.40;;;;;;1522614;76;612;-67
2022/05/26 03:56:09;;;;;;;;;;;24.80;41.30;;;;;;1549563;75;1949;-66
2022/05/26 03:58:11;;;;;;;;;;;24.80;41.20;;;;;;1560512;75;709;-65
2022/05/26 04:00:15;;;;;;;;;;;24.80;41.30;;;;;;1509252;77;645;-65
2022/05/26 04:02:17;;;;;;;;;;;24.80;41.20;;;;;;1555350;75;678;-65
2022/05/26 04:04:19;;;;;;;;;;;24.80;41.20;;;;;;1561002;74;674;-66
2022/05/26 04:06:21;;;;;;;;;;;24.90;41.30;;;;;;1559311;75;1148;-66
2022/05/26 04:08:23;;;;;;;;;;;24.80;41.10;;;;;;1564241;75;766;-68
2022/05/26 04:10:25;;;;;;;;;;;24.80;41.10;;;;;;1560232;75;753;-65
2022/05/26 04:12:26;;;;;;;;;;;24.70;41.10;;;;;;1589243;73;737;-65
2022/05/26 04:14:28;;;;;;;;;;;24.80;41.10;;;;;;1591423;73;1941;-66
2022/05/26 04:16:30;;;;;;;;;;;24.80;41.10;;;;;;1599263;73;1131;-67
2022/05/26 04:18:32;;;;;;;;;;;24.80;41.20;;;;;;1607975;73;668;-68
2022/05/26 04:20:34;;;;;;;;;;;24.80;41.30;;;;;;1600645;73;547;-67
2022/05/26 04:22:36;;;;;;;;;;;24.80;41.20;;;;;;1604420;73;669;-69
2022/05/26 04:24:38;;;;;;;;;;;24.80;41.40;;;;;;1609673;73;696;-69
2022/05/26 04:26:39;;;;;;;;;;;24.70;41.30;;;;;;1603888;72;1132;-66
2022/05/26 04:28:41;;;;;;;;;;;24.80;41.20;;;;;;1581095;73;757;-67
2022/05/26 04:30:43;;;;;;;;;;;24.80;41.30;;;;;;1582579;73;697;-64
2022/05/26 04:32:45;;;;;;;;;;;24.80;41.40;;;;;;1615840;73;701;-68
2022/05/26 04:34:48;;;;;;;;;;;24.80;41.30;;;;;;1597550;73;1932;-67
2022/05/26 04:36:50;;;;;;;;;;;24.80;41.30;;;;;;1587257;72;1120;-67
2022/05/26 04:38:52;;;;;;;;;;;24.80;41.30;;;;;;1586882;73;725;-67
2022/05/26 04:41:01;;;;;;;;;;;24.80;41.40;;;;;;1603775;73;1472;-68
2022/05/26 04:43:03;;;;;;;;;;;24.90;41.40;;;;;;1589202;73;699;-68
2022/05/26 04:45:05;;;;;;;;;;;24.80;41.50;;;;;;1588868;73;766;-66
2022/05/26 04:47:07;;;;;;;;;;;24.80;41.40;;;;;;1596122;72;1167;-68
2022/05/26 04:49:09;;;;;;;;;;;24.80;41.60;;;;;;1586851;73;707;-68
2022/05/26 04:51:11;;;;;;;;;;;24.80;41.60;;;;;;1594480;73;746;-67
2022/05/26 04:53:13;;;;;;;;;;;24.80;41.60;;;;;;1596254;73;738;-68
2022/05/26 04:55:15;;;;;;;;;;;24.80;41.50;;;;;;1585661;72;1937;-67
2022/05/26 04:57:18;;;;;;;;;;;24.80;41.60;;;;;;1580872;73;701;-67
2022/05/26 04:59:20;;;;;;;;;;;24.80;41.60;;;;;;1603762;73;697;-67
2022/05/26 05:01:22;;;;;;;;;;;24.80;41.60;;;;;;1592499;73;670;-68
2022/05/26 05:03:24;;;;;;;;;;;24.80;41.70;;;;;;1597760;73;729;-68
2022/05/26 05:05:26;;;;;;;;;;;24.90;41.80;;;;;;1603026;73;1125;-68
2022/05/26 05:07:28;;;;;;;;;;;24.80;41.60;;;;;;1595319;73;731;-67
2022/05/26 05:09:30;;;;;;;;;;;24.80;41.70;;;;;;1611039;73;880;-69
2022/05/26 05:11:32;;;;;;;;;;;24.80;41.70;;;;;;1596731;73;679;-67
2022/05/26 05:13:34;;;;;;;;;;;24.80;41.70;;;;;;1598458;73;678;-68
2022/05/26 05:15:37;;;;;;;;;;;24.80;41.70;;;;;;1597261;73;1932;-66
2022/05/26 05:17:40;;;;;;;;;;;24.80;41.70;;;;;;1594129;73;806;-67
2022/05/26 05:19:41;;;;;;;;;;;24.80;41.70;;;;;;1592184;73;612;-67
2022/05/26 05:22:02;;;;;;;;;;;24.80;41.70;;;;;;1587434;73;726;-65
2022/05/26 05:24:06;;;;;;;;;;;24.80;41.70;;;;;;1605098;73;676;-68
2022/05/26 05:26:08;;;;;;;;;;;24.80;41.80;;;;;;1589957;73;1192;-67
2022/05/26 05:28:11;;;;;;;;;;;24.80;41.70;;;;;;1578973;73;646;-67
2022/05/26 05:30:17;;;;;;;;;;;24.80;41.70;;;;;;1581579;73;665;-67
2022/05/26 05:32:27;;;;;;;;;;;24.80;41.70;;;;;;1582969;73;1189;-68
2022/05/26 05:34:30;;;;;;;;;;;24.80;41.70;;;;;;1591355;73;669;-67
2022/05/26 05:36:32;;;;;;;;;;;24.80;41.70;;;;;;1595787;72;1922;-67
2022/05/26 05:38:35;;;;;;;;;;;24.80;41.70;;;;;;1599020;73;672;-65
2022/05/26 05:40:37;;;;;;;;;;;24.80;41.70;;;;;;1601690;73;683;-65
2022/05/26 05:42:39;;;;;;;;;;;24.80;41.70;;;;;;1592181;73;672;-66
2022/05/26 05:44:41;;;;;;;;;;;24.80;41.70;;;;;;1607254;73;671;-67
2022/05/26 05:46:57;;;;;;;;;;;24.80;41.70;;;;;;1577278;73;1167;-67
2022/05/26 05:48:59;;;;;;;;;;;24.80;41.70;;;;;;1565780;73;675;-68
2022/05/26 05:51:01;;;;;;;;;;;24.80;41.70;;;;;;1593998;73;678;-67
2022/05/26 05:53:03;;;;;;;;;;;24.80;41.70;;;;;;1567834;73;777;-68
2022/05/26 05:55:05;;;;;;;;;;;24.80;41.70;;;;;;1565281;73;1928;-67
2022/05/26 05:57:07;;;;;;;;;;;24.80;41.60;;;;;;1580413;72;1166;-66
2022/05/26 05:59:09;;;;;;;;;;;24.90;41.80;;;;;;1579842;73;689;-69
2022/05/26 06:01:11;;;;;;;;;;;24.80;41.80;;;;;;1571563;73;552;-69
2022/05/26 06:03:13;;;;;;;;;;;24.80;41.70;;;;;;1570026;73;655;-68
2022/05/26 06:05:14;;;;;;;;;;;24.80;41.70;;;;;;1564851;73;1119;-67
2022/05/26 06:07:18;;;;;;;;;;;24.90;41.80;;;;;;1565778;73;658;-67
2022/05/26 06:09:20;;;;;;;;;;;24.90;42.00;;;;;;1573943;73;704;-67
2022/05/26 06:11:22;;;;;;;;;;;24.80;41.90;;;;;;1572424;73;667;-67
2022/05/26 06:13:24;;;;;;;;;;;24.90;42.00;;;;;;1576580;73;683;-69
2022/05/26 06:15:26;;;;;;;;;;;24.80;42.00;;;;;;1581475;73;1947;-67
2022/05/26 06:17:28;;;;;;;;;;;24.90;42.00;;;;;;1587229;73;664;-68
2022/05/26 06:19:29;;;;;;;;;;;24.90;42.20;;;;;;1578569;73;676;-68
2022/05/26 06:21:32;;;;;;;;;;;24.90;42.10;;;;;;1568232;73;679;-69
2022/05/26 06:23:34;;;;;;;;;;;24.90;42.10;;;;;;1567474;73;659;-69
2022/05/26 06:25:36;;;;;;;;;;;25.00;42.10;;;;;;1574477;73;1129;-68
2022/05/26 06:29:58;;;;;;;;;;;24.80;42.00;;;;;;1567591;73;1648;-70
2022/05/26 06:38:59;;;;;;;;;;;24.80;42.00;;;;;;1575624;73;1659;-64
2022/05/26 06:42:05;;;;;;;;;;;24.80;42.00;;;;;;1585082;73;706;-66
2022/05/26 06:43:05;;;;;;;;;;;24.80;42.00;;;;;;1580691;73;1332;-67
2022/05/26 06:45:07;;;;;;;;;;;24.80;42.00;;;;;;1582628;73;735;-68
2022/05/26 06:47:10;;;;;;;;;;;24.90;42.10;;;;;;1582560;73;1159;-67
2022/05/26 06:49:12;;;;;;;;;;;24.90;42.00;;;;;;1573579;73;540;-68
2022/05/26 06:51:14;;;;;;;;;;;24.90;42.10;;;;;;1577559;73;717;-68
2022/05/26 06:53:18;;;;;;;;;;;24.80;41.90;;;;;;1577198;73;628;-69
2022/05/26 06:55:19;;;;;;;;;;;24.80;41.90;;;;;;1578823;73;1614;-69
2022/05/26 06:57:21;;;;;;;;;;;24.80;42.00;;;;;;1575963;73;1951;-70
2022/05/26 06:59:23;;;;;;;;;;;24.80;42.10;;;;;;1572184;73;721;-68
2022/05/26 07:01:26;;;;;;;;;;;24.80;42.10;;;;;;1579129;73;705;-69
2022/05/26 07:03:28;;;;;;;;;;;24.80;42.10;;;;;;1588009;73;725;-68
2022/05/26 07:05:29;;;;;;;;;;;24.80;42.10;;;;;;1572234;73;1182;-70
2022/05/26 07:07:32;;;;;;;;;;;24.80;42.10;;;;;;1576811;73;689;-68
2022/05/26 07:09:34;;;;;;;;;;;24.80;42.10;;;;;;1580512;73;615;-69
2022/05/26 07:11:36;;;;;;;;;;;24.70;42.10;;;;;;1590664;73;690;-68
2022/05/26 07:13:38;;;;;;;;;;;24.70;42.20;;;;;;1584548;73;689;-69
2022/05/26 07:15:40;;;;;;;;;;;24.70;42.10;;;;;;1588991;73;1931;-67
2022/05/26 07:17:42;;;;;;;;;;;24.70;42.10;;;;;;1581480;73;716;-68
2022/05/26 07:19:44;;;;;;;;;;;24.70;42.10;;;;;;1581133;73;682;-67
2022/05/26 07:21:46;;;;;;;;;;;24.70;42.10;;;;;;1573592;73;652;-69
2022/05/26 07:23:48;;;;;;;;;;;24.70;42.10;;;;;;1573731;73;723;-67
2022/05/26 07:25:50;;;;;;;;;;;24.70;42.10;;;;;;1573541;73;1139;-68
2022/05/26 07:27:52;;;;;;;;;;;24.70;42.10;;;;;;1580216;73;774;-69
2022/05/26 07:29:53;;;;;;;;;;;24.70;42.10;;;;;;1584411;73;1458;-68
2022/05/26 07:31:55;;;;;;;;;;;24.70;42.10;;;;;;1590001;73;619;-68
2022/05/26 07:33:57;;;;;;;;;;;24.70;42.10;;;;;;1589232;73;685;-67
2022/05/26 07:35:59;;;;;;;;;;;24.70;42.10;;;;;;1587479;73;1927;-68
2022/05/26 07:42:31;;;;;;;;;;;24.70;42.10;;;;;;1587563;73;669;-68
2022/05/26 07:44:35;;;;;;;;;;;24.70;42.10;;;;;;1588840;73;685;-69
2022/05/26 07:46:37;;;;;;;;;;;24.70;42.10;;;;;;1579181;73;1187;-69
2022/05/26 07:48:39;;;;;;;;;;;24.70;42.10;;;;;;1580042;73;762;-66
2022/05/26 07:50:41;;;;;;;;;;;24.70;42.10;;;;;;1580698;73;723;-65
2022/05/26 07:52:43;;;;;;;;;;;24.60;42.00;;;;;;1584859;73;714;-65
2022/05/26 07:54:44;;;;;;;;;;;24.70;42.10;;;;;;1581658;73;739;-67
2022/05/26 07:56:46;;;;;;;;;;;24.60;41.90;;;;;;1587635;73;1946;-68
2022/05/26 07:58:48;;;;;;;;;;;24.70;42.00;;;;;;1597501;73;726;-68
2022/05/26 08:00:53;;;;;;;;;;;24.60;41.90;;;;;;1587026;73;749;-69
2022/05/26 08:02:54;;;;;;;;;;;24.70;42.00;;;;;;1581870;73;1423;-67
2022/05/26 08:04:56;;;;;;;;;;;24.70;42.00;;;;;;1579239;73;697;-65
2022/05/26 08:06:57;;;;;;;;;;;24.60;41.80;;;;;;1572945;73;1101;-67
2022/05/26 08:08:59;;;;;;;;;;;24.70;41.90;;;;;;1576471;73;608;-68
2022/05/26 08:11:01;;;;;;;;;;;24.70;41.80;;;;;;1587423;73;673;-64
2022/05/26 08:13:04;;;;;;;;;;;24.70;41.90;;;;;;1578115;73;635;-68
2022/05/26 08:15:06;;;;;;;;;;;24.70;41.80;;;;;;1577739;73;665;-68
2022/05/26 08:17:08;;;;;;;;;;;24.70;41.80;;;;;;1575786;73;1949;-68
2022/05/26 08:19:10;;;;;;;;;;;24.70;41.80;;;;;;1595004;73;619;-68
2022/05/26 08:21:13;;;;;;;;;;;24.70;41.70;;;;;;1586076;73;638;-68
2022/05/26 08:23:15;;;;;;;;;;;24.70;41.70;;;;;;1599410;73;693;-68
2022/05/26 08:25:17;;;;;;;;;;;24.70;41.80;;;;;;1588915;72;1463;-67
2022/05/26 08:27:19;;;;;;;;;;;24.70;41.70;;;;;;1583536;73;693;-66
2022/05/26 08:29:21;;;;;;;;;;;24.70;41.70;;;;;;1584459;73;574;-68
2022/05/26 08:31:23;;;;;;;;;;;24.70;41.70;;;;;;1587651;73;737;-67
2022/05/26 08:33:25;;;;;;;;;;;24.70;41.60;;;;;;1587521;73;713;-68
2022/05/26 08:35:27;;;;;;;;;;;24.70;41.60;;;;;;1577366;73;1072;-67
2022/05/26 08:37:29;;;;;;;;;;;24.60;41.50;;;;;;1597647;73;1940;-68
2022/05/26 08:39:32;;;;;;;;;;;24.70;41.60;;;;;;1582281;73;785;-68
2022/05/26 08:41:34;;;;;;;;;;;24.70;41.60;;;;;;1599082;73;715;-66
2022/05/26 08:43:37;;;;;;;;;;;24.70;41.60;;;;;;1584798;73;733;-66
2022/05/26 08:45:40;;;;;;;;;;;24.70;41.70;;;;;;1584968;73;1139;-68
2022/05/26 08:47:43;;;;;;;;;;;24.70;41.60;;;;;;1580158;73;735;-68
2022/05/26 08:50:04;;;;;;;;;;;24.70;41.60;;;;;;1584631;73;767;-67
2022/05/26 08:52:07;;;;;;;;;;;24.70;41.60;;;;;;1581896;73;688;-67
2022/05/26 08:54:11;;;;;;;;;;;24.70;41.60;;;;;;1580973;73;1076;-67
2022/05/26 08:56:12;;;;;;;;;;;24.70;41.60;;;;;;1591101;73;1963;-66
2022/05/26 08:58:16;;;;;;;;;;;24.70;41.60;;;;;;1582183;73;723;-67
2022/05/26 09:00:20;;;;;;;;;;;24.60;41.50;;;;;;1575606;73;651;-68
2022/05/26 09:02:26;;;;;;;;;;;24.60;41.50;;;;;;1583025;73;743;-69
2022/05/26 09:04:28;;;;;;;;;;;24.70;41.50;;;;;;1582827;73;734;-70
2022/05/26 09:06:30;;;;;;;;;;;24.70;41.50;;;;;;1590846;72;1074;-69
2022/05/26 09:13:13;;;;;;;;;;;24.70;41.40;;;;;;1569381;73;1680;-68
2022/05/26 09:15:15;;;;;;;;;;;24.70;41.30;;;;;;1602009;72;1216;-69
2022/05/26 09:17:17;;;;;;;;;;;24.80;41.30;;;;;;1589470;73;1884;-69
2022/05/26 09:19:22;;;;;;;;;;;24.70;41.30;;;;;;1581916;73;685;-70
2022/05/26 09:21:25;;;;;;;;;;;24.80;41.20;;;;;;1589941;73;1324;-70
2022/05/26 09:23:28;;;;;;;;;;;24.70;41.10;;;;;;1598575;73;664;-69
2022/05/26 09:25:38;;;;;;;;;;;24.80;41.20;;;;;;1602305;72;1227;-69
2022/05/26 09:27:40;;;;;;;;;;;24.70;41.10;;;;;;1598626;73;742;-66
2022/05/26 09:29:42;;;;;;;;;;;24.80;41.10;;;;;;1551707;74;700;-68
2022/05/26 09:31:47;;;;;;;;;;;24.80;41.10;;;;;;1596967;73;681;-69
2022/05/26 09:34:02;;;;;;;;;;;24.70;41.10;;;;;;1584149;73;663;-69
2022/05/26 09:36:14;;;;;;;;;;;24.80;41.00;;;;;;1597687;73;1166;-69
2022/05/26 09:38:17;;;;;;;;;;;24.80;41.00;;;;;;1584874;73;1975;-68
2022/05/26 09:40:24;;;;;;;;;;;24.80;40.90;;;;;;1588007;73;722;-68
2022/05/26 09:42:27;;;;;;;;;;;24.80;41.00;;;;;;1587507;73;1166;-68
2022/05/26 09:44:31;;;;;;;;;;;24.80;41.00;;;;;;1590998;73;677;-68
2022/05/26 09:46:33;;;;;;;;;;;24.80;41.00;;;;;;1572716;73;3124;-66
2022/05/26 09:48:35;;;;;;;;;;;24.90;41.00;;;;;;1535032;76;686;-66
2022/05/26 09:50:45;;;;;;;;;;;24.80;40.90;;;;;;1545080;76;698;-67
2022/05/26 09:52:52;;;;;;;;;;;24.80;40.90;;;;;;1547342;76;668;-65
2022/05/26 09:54:52;;;;;;;;;;;24.80;40.90;;;;;;1542241;76;1262;-67
2022/05/26 09:56:54;;;;;;;;;;;24.80;41.00;;;;;;1536621;75;1943;-66
2022/05/26 09:58:57;;;;;;;;;;;24.80;40.90;;;;;;1543559;76;684;-66
2022/05/26 10:01:00;;;;;;;;;;;24.80;40.90;;;;;;1538459;76;747;-65
2022/05/26 10:03:04;;;;;;;;;;;24.80;40.90;;;;;;1534991;76;1812;-65
2022/05/26 10:05:13;;;;;;;;;;;24.80;41.00;;;;;;1544346;76;775;-68
2022/05/26 10:07:20;;;;;;;;;;;24.80;40.90;;;;;;1547456;75;1120;-68
2022/05/26 10:09:23;;;;;;;;;;;24.80;40.80;;;;;;1535198;76;1952;-68
2022/05/26 10:11:33;;;;;;;;;;;24.80;40.60;;;;;;1539110;76;1754;-68
2022/05/26 10:13:49;;;;;;;;;;;24.80;39.40;;;;;;1531738;76;1916;-68
2022/05/26 10:15:55;;;;;;;;;;;24.80;40.00;;;;;;1536779;76;1156;-68
2022/05/26 10:18:05;;;;;;;;;;;24.80;39.90;;;;;;1536924;76;1952;-68
2022/05/26 10:20:10;;;;;;;;;;;24.80;39.70;;;;;;1532265;76;823;-68
2022/05/26 10:22:30;;;;;;;;;;;24.80;39.70;;;;;;1538576;76;1004;-68
2022/05/26 10:24:33;;;;;;;;;;;24.80;39.70;;;;;;1532273;76;678;-69
2022/05/26 10:26:37;;;;;;;;;;;24.90;39.40;;;;;;1532119;76;1928;-69
2022/05/26 10:28:43;;;;;;;;;;;24.80;39.10;;;;;;1536451;76;583;-68
2022/05/26 10:30:59;;;;;;;;;;;25.00;39.10;;;;;;1528526;76;2339;-68
2022/05/26 10:33:18;;;;;;;;;;;24.90;38.90;;;;;;1528917;76;693;-69
2022/05/26 10:35:26;;;;;;;;;;;24.90;38.60;;;;;;1546318;76;1472;-68
2022/05/26 10:37:46;;;;;;;;;;;24.90;38.40;;;;;;1537620;75;1920;-69
2022/05/26 10:39:50;;;;;;;;;;;24.90;38.40;;;;;;1525519;76;723;-67
2022/05/26 10:41:53;;;;;;;;;;;24.90;37.80;;;;;;1528446;76;1756;-68
2022/05/26 10:43:57;;;;;;;;;;;24.80;38.00;;;;;;1526453;76;1667;-69
2022/05/26 10:45:59;;;;;;;;;;;24.80;37.90;;;;;;1533729;75;1797;-69
2022/05/26 10:48:02;;;;;;;;;;;24.80;38.20;;;;;;1549568;76;752;-68
2022/05/26 10:50:16;;;;;;;;;;;24.80;37.80;;;;;;1546723;76;1952;-67
2022/05/26 10:52:31;;;;;;;;;;;24.80;37.80;;;;;;1544946;76;675;-68
2022/05/26 10:54:51;;;;;;;;;;;24.80;38.00;;;;;;1540760;76;554;-68
2022/05/26 10:56:57;;;;;;;;;;;24.80;38.00;;;;;;1536286;75;1970;-67
2022/05/26 10:59:03;;;;;;;;;;;24.70;38.00;;;;;;1547408;76;1998;-67
2022/05/26 11:01:06;;;;;;;;;;;24.80;38.10;;;;;;1543227;76;634;-67
2022/05/26 11:03:13;;;;;;;;;;;24.70;38.10;;;;;;1539658;76;779;-67
2022/05/26 11:05:20;;;;;;;;;;;24.80;38.10;;;;;;1541930;76;685;-66
2022/05/26 11:07:23;;;;;;;;;;;24.80;38.20;;;;;;1537480;75;1794;-67
2022/05/26 11:09:34;;;;;;;;;;;24.70;38.20;;;;;;1535934;76;1989;-67
2022/05/26 11:11:37;;;;;;;;;;;24.70;38.30;;;;;;1538462;76;1775;-67
2022/05/26 11:13:49;;;;;;;;;;;24.80;38.30;;;;;;1528538;76;1625;-66
2022/05/26 11:18:20;;;;;;;;;;;24.70;38.20;;;;;;1532134;76;1902;-68
2022/05/26 11:20:23;;;;;;;;;;;24.80;38.30;;;;;;1549013;76;710;-67
2022/05/26 11:22:25;;;;;;;;;;;24.70;38.30;;;;;;1538187;76;828;-66
2022/05/26 11:24:27;;;;;;;;;;;24.70;38.30;;;;;;1544173;76;671;-67
2022/05/26 11:26:40;;;;;;;;;;;24.70;38.40;;;;;;1540011;76;1151;-67
2022/05/26 11:28:43;;;;;;;;;;;24.70;38.40;;;;;;1540340;76;762;-65
2022/05/26 11:37:49;;;;;;;;;;;24.70;37.80;;;;;;1527781;76;1917;-66
2022/05/26 11:39:56;;;;;;;;;;;24.70;37.60;;;;;;1544548;76;1882;-65
2022/05/26 11:41:59;;;;;;;;;;;24.70;37.40;;;;;;1534486;76;767;-66
2022/05/26 11:44:10;;;;;;;;;;;24.70;37.40;;;;;;1540639;76;692;-66
2022/05/26 11:46:12;;;;;;;;;;;24.70;37.20;;;;;;1533337;75;1140;-65
2022/05/26 11:48:34;;;;;;;;;;;24.60;36.80;;;;;;1550182;76;783;-67
2022/05/26 11:50:38;;;;;;;;;;;24.70;37.10;;;;;;1527096;76;647;-66
2022/05/26 11:52:41;;;;;;;;;;;24.60;36.40;;;;;;1542604;76;598;-65
2022/05/26 11:55:02;;;;;;;;;;;24.60;36.80;;;;;;1546342;76;720;-65
2022/05/26 11:57:01;;;;;;;;;;;24.60;36.30;;;;;;1540110;75;1571;-65
2022/05/26 11:59:20;;;;;;;;;;;24.60;35.60;;;;;;1528055;77;1959;-65
2022/05/26 12:01:23;;;;;;;;;;;24.60;36.50;;;;;;1529487;76;952;-64
2022/05/26 12:03:27;;;;;;;;;;;24.60;36.40;;;;;;1528841;76;793;-66
2022/05/26 12:05:33;;;;;;;;;;;24.60;36.40;;;;;;1533235;77;707;-66
2022/05/26 12:07:36;;;;;;;;;;;24.60;36.00;;;;;;1525799;77;701;-66
2022/05/26 12:09:39;;;;;;;;;;;24.60;35.90;;;;;;1533252;76;693;-64
2022/05/26 12:11:51;;;;;;;;;;;24.50;36.00;;;;;;1523468;76;1819;-66
2022/05/26 12:14:02;;;;;;;;;;;24.60;35.90;;;;;;1523499;77;1009;-66
2022/05/26 12:16:05;;;;;;;;;;;24.60;35.70;;;;;;1532844;76;1141;-65
2022/05/26 12:18:09;;;;;;;;;;;24.60;35.70;;;;;;1532760;76;1944;-65
2022/05/26 12:20:13;;;;;;;;;;;24.50;35.60;;;;;;1526861;77;1683;-66
2022/05/26 12:22:16;;;;;;;;;;;24.50;35.10;;;;;;1532263;77;688;-66
2022/05/26 12:24:35;;;;;;;;;;;24.50;35.40;;;;;;1480304;77;970;-66
2022/05/26 12:26:47;;;;;;;;;;;24.50;35.40;;;;;;1535367;76;1195;-66
2022/05/26 12:28:49;;;;;;;;;;;24.50;35.30;;;;;;1524015;77;775;-65
2022/05/26 12:30:53;;;;;;;;;;;24.50;35.00;;;;;;1521112;76;790;-64
2022/05/26 12:32:55;;;;;;;;;;;24.50;34.70;;;;;;1528922;76;757;-67
2022/05/26 12:35:01;;;;;;;;;;;24.40;35.10;;;;;;1526300;77;773;-65
2022/05/26 12:37:03;;;;;;;;;;;24.50;35.20;;;;;;1525968;76;1888;-67
2022/05/26 12:39:16;;;;;;;;;;;24.40;35.00;;;;;;1522559;77;1922;-65
2022/05/26 12:41:36;;;;;;;;;;;24.40;34.70;;;;;;1529376;77;1868;-66
2022/05/26 12:43:58;;;;;;;;;;;24.40;34.90;;;;;;1530812;77;739;-66
2022/05/26 12:46:01;;;;;;;;;;;24.40;34.90;;;;;;1522338;76;1521;-65
2022/05/26 12:48:08;;;;;;;;;;;24.40;34.90;;;;;;1533556;76;1946;-66
2022/05/26 12:50:17;;;;;;;;;;;24.40;34.90;;;;;;1526882;77;747;-64
2022/05/26 12:52:21;;;;;;;;;;;24.30;34.80;;;;;;1523188;77;716;-65
2022/05/26 12:54:24;;;;;;;;;;;24.40;34.70;;;;;;1527148;77;1004;-66
2022/05/26 12:56:44;;;;;;;;;;;24.30;34.70;;;;;;1527949;76;1188;-66